createdAt,value
2019-04-26T00:00:10.101Z,0.00
2019-04-26T00:01:09.993Z,0.00
2019-04-26T00:02:09.883Z,0.00
2019-04-26T00:03:10.210Z,0.00
2019-04-26T00:04:10.204Z,0.00
2019-04-26T00:05:10.154Z,0.00
2019-04-26T00:06:09.016Z,0.00
2019-04-26T00:07:09.558Z,0.00
2019-04-26T00:08:09.280Z,0.00
2019-04-26T00:09:09.408Z,0.00
2019-04-26T00:10:10.365Z,0.00
2019-04-26T00:11:09.642Z,0.00
2019-04-26T00:12:10.708Z,0.00
2019-04-26T00:13:09.818Z,0.00
2019-04-26T00:14:09.869Z,0.00
2019-04-26T00:15:08.882Z,0.00
2019-04-26T00:16:08.893Z,0.00
2019-04-26T00:17:09.235Z,0.00
2019-04-26T00:18:08.818Z,0.00
2019-04-26T00:19:09.408Z,0.00
2019-04-26T00:20:08.810Z,0.00
2019-04-26T00:21:09.618Z,0.00
2019-04-26T00:22:08.797Z,0.00
2019-04-26T00:23:10.616Z,0.00
2019-04-26T00:24:08.750Z,0.00
2019-04-26T00:25:08.766Z,0.00
2019-04-26T00:26:08.724Z,0.00
2019-04-26T00:27:08.731Z,0.00
2019-04-26T00:28:08.702Z,0.00
2019-04-26T00:29:08.691Z,0.00
2019-04-26T00:30:08.703Z,0.00
2019-04-26T00:31:08.674Z,0.00
2019-04-26T00:32:08.714Z,0.00
2019-04-26T00:33:08.647Z,0.00
2019-04-26T00:34:08.637Z,0.00
2019-04-26T00:35:08.626Z,0.00
2019-04-26T00:36:08.637Z,0.00
2019-04-26T00:37:08.629Z,0.00
2019-04-26T00:38:08.588Z,0.00
2019-04-26T00:39:08.579Z,0.00
2019-04-26T00:40:08.601Z,0.00
2019-04-26T00:41:08.558Z,0.00
2019-04-26T00:42:08.629Z,0.00
2019-04-26T00:43:08.536Z,0.00
2019-04-26T00:44:08.548Z,0.00
2019-04-26T00:45:08.537Z,0.00
2019-04-26T00:46:08.556Z,0.00
2019-04-26T00:47:08.557Z,0.00
2019-04-26T00:48:08.544Z,0.00
2019-04-26T00:49:08.520Z,0.00
2019-04-26T00:50:08.552Z,0.00
2019-04-26T00:51:08.505Z,0.00
2019-04-26T00:52:08.565Z,0.00
2019-04-26T00:53:08.459Z,0.00
2019-04-26T00:54:08.436Z,0.00
2019-04-26T00:55:08.406Z,0.00
2019-04-26T00:56:08.398Z,0.00
2019-04-26T00:57:08.408Z,0.00
2019-04-26T00:58:08.374Z,0.00
2019-04-26T00:59:08.362Z,0.00
2019-04-26T01:00:08.366Z,0.00
2019-04-26T01:01:08.336Z,0.00
2019-04-26T01:02:08.387Z,0.00
2019-04-26T01:03:08.322Z,0.00
2019-04-26T01:04:08.310Z,0.00
2019-04-26T01:05:08.302Z,0.00
2019-04-26T01:06:08.292Z,0.00
2019-04-26T01:07:08.305Z,0.00
2019-04-26T01:08:08.263Z,0.00
2019-04-26T01:09:08.246Z,0.00
2019-04-26T01:10:08.237Z,0.00
2019-04-26T01:11:08.238Z,0.00
2019-04-26T01:12:08.213Z,0.00
2019-04-26T01:13:08.230Z,0.00
2019-04-26T01:14:08.192Z,0.00
2019-04-26T01:15:08.181Z,0.00
2019-04-26T01:16:08.192Z,0.00
2019-04-26T01:17:08.164Z,0.00
2019-04-26T01:18:08.212Z,0.00
2019-04-26T01:19:08.140Z,0.00
2019-04-26T01:20:08.123Z,0.00
2019-04-26T01:21:08.138Z,0.00
2019-04-26T01:22:08.151Z,0.00
2019-04-26T01:23:08.119Z,0.00
2019-04-26T01:24:08.116Z,0.00
2019-04-26T01:25:08.080Z,0.00
2019-04-26T01:26:08.063Z,0.00
2019-04-26T01:27:08.095Z,0.00
2019-04-26T01:28:08.099Z,0.00
2019-04-26T01:29:08.029Z,0.00
2019-04-26T01:30:08.070Z,0.00
2019-04-26T01:31:08.009Z,0.00
2019-04-26T01:32:07.996Z,0.00
2019-04-26T01:33:08.033Z,0.00
2019-04-26T01:34:07.978Z,0.00
2019-04-26T01:35:07.965Z,0.00
2019-04-26T01:36:13.210Z,0.00
2019-04-26T01:37:08.954Z,0.00
2019-04-26T01:38:07.979Z,0.00
2019-04-26T01:39:07.917Z,0.00
2019-04-26T01:40:07.916Z,0.00
2019-04-26T01:41:07.904Z,0.00
2019-04-26T01:42:07.894Z,0.00
2019-04-26T01:43:07.950Z,0.00
2019-04-26T01:44:07.868Z,0.00
2019-04-26T01:45:07.855Z,0.00
2019-04-26T01:46:07.835Z,0.00
2019-04-26T01:47:07.828Z,0.00
2019-04-26T01:48:07.841Z,0.00
2019-04-26T01:49:07.808Z,0.00
2019-04-26T01:50:07.794Z,0.00
2019-04-26T01:51:07.791Z,0.00
2019-04-26T01:52:07.772Z,0.00
2019-04-26T01:53:07.817Z,0.00
2019-04-26T01:54:07.783Z,0.00
2019-04-26T01:55:07.758Z,0.00
2019-04-26T01:56:07.732Z,0.00
2019-04-26T01:57:07.764Z,0.00
2019-04-26T01:58:07.737Z,0.00
2019-04-26T01:59:07.755Z,0.00
2019-04-26T02:00:07.731Z,0.00
2019-04-26T02:01:07.736Z,0.00
2019-04-26T02:02:07.662Z,0.00
2019-04-26T02:03:07.653Z,0.00
2019-04-26T02:04:07.672Z,0.00
2019-04-26T02:05:07.633Z,0.00
2019-04-26T02:06:07.643Z,0.00
2019-04-26T02:07:07.650Z,0.00
2019-04-26T02:08:07.654Z,0.00
2019-04-26T02:09:07.582Z,0.00
2019-04-26T02:10:07.576Z,0.00
2019-04-26T02:11:07.563Z,0.00
2019-04-26T02:12:07.585Z,0.00
2019-04-26T02:13:07.568Z,0.00
2019-04-26T02:14:07.528Z,0.00
2019-04-26T02:15:07.545Z,0.00
2019-04-26T02:16:07.517Z,0.00
2019-04-26T02:17:07.523Z,0.00
2019-04-26T02:18:07.508Z,0.00
2019-04-26T02:19:07.483Z,0.00
2019-04-26T02:20:07.478Z,0.00
2019-04-26T02:21:07.459Z,0.00
2019-04-26T02:22:07.452Z,0.00
2019-04-26T02:23:07.458Z,0.00
2019-04-26T02:24:07.453Z,0.00
2019-04-26T02:25:07.409Z,0.00
2019-04-26T02:26:07.397Z,0.00
2019-04-26T02:27:07.434Z,0.00
2019-04-26T02:28:07.398Z,0.00
2019-04-26T02:29:07.427Z,0.00
2019-04-26T02:30:07.354Z,0.00
2019-04-26T02:31:07.369Z,0.00
2019-04-26T02:32:07.410Z,0.00
2019-04-26T02:33:07.353Z,0.00
2019-04-26T02:34:07.407Z,0.00
2019-04-26T02:35:07.299Z,0.00
2019-04-26T02:36:07.344Z,0.00
2019-04-26T02:37:07.310Z,0.00
2019-04-26T02:38:07.278Z,0.00
2019-04-26T02:39:07.304Z,0.00
2019-04-26T02:40:07.251Z,0.00
2019-04-26T02:41:07.277Z,0.00
2019-04-26T02:42:07.239Z,0.00
2019-04-26T02:43:07.238Z,0.00
2019-04-26T02:44:07.232Z,0.00
2019-04-26T02:45:07.188Z,0.00
2019-04-26T02:46:07.184Z,0.00
2019-04-26T02:47:07.203Z,0.00
2019-04-26T02:48:07.162Z,0.00
2019-04-26T02:49:07.191Z,0.00
2019-04-26T02:50:07.180Z,0.00
2019-04-26T02:51:07.154Z,0.00
2019-04-26T02:52:07.138Z,0.00
2019-04-26T02:53:07.114Z,0.00
2019-04-26T02:54:07.155Z,0.00
2019-04-26T02:55:07.077Z,0.00
2019-04-26T02:56:07.110Z,0.00
2019-04-26T02:57:07.142Z,0.00
2019-04-26T02:58:07.046Z,0.00
2019-04-26T02:59:07.121Z,0.00
2019-04-26T03:01:26.195Z,0.00
2019-04-26T03:04:00.203Z,0.00
2019-04-26T03:05:38.008Z,0.00
2019-04-26T03:05:39.647Z,0.00
2019-04-26T03:06:37.281Z,0.00
2019-04-26T03:07:37.584Z,0.00
2019-04-26T03:08:37.782Z,0.00
2019-04-26T03:09:37.034Z,0.00
2019-04-26T03:10:38.160Z,0.00
2019-04-26T03:11:37.110Z,0.00
2019-04-26T03:12:37.696Z,0.00
2019-04-26T03:13:36.923Z,0.00
2019-04-26T03:14:37.091Z,0.00
2019-04-26T03:15:37.200Z,0.00
2019-04-26T03:16:37.279Z,0.00
2019-04-26T03:17:37.654Z,0.00
2019-04-26T03:18:37.369Z,0.00
2019-04-26T03:19:37.756Z,0.00
2019-04-26T03:20:36.365Z,0.00
2019-04-26T03:21:37.671Z,0.00
2019-04-26T03:22:37.348Z,0.00
2019-04-26T03:23:56.066Z,0.00
2019-04-26T03:24:38.607Z,0.00
2019-04-26T03:25:36.961Z,0.00
2019-04-26T03:26:37.416Z,0.00
2019-04-26T03:27:38.054Z,0.00
2019-04-26T03:28:37.651Z,0.00
2019-04-26T03:29:37.447Z,0.00
2019-04-26T03:30:42.753Z,0.00
2019-04-26T03:31:46.006Z,0.00
2019-04-26T03:32:47.887Z,0.00
2019-04-26T03:33:45.237Z,0.00
2019-04-26T03:34:45.566Z,0.00
2019-04-26T03:35:44.928Z,0.00
2019-04-26T03:36:39.126Z,0.00
2019-04-26T03:37:36.622Z,0.00
2019-04-26T03:38:37.722Z,0.00
2019-04-26T03:39:37.112Z,0.00
2019-04-26T03:40:38.128Z,0.00
2019-04-26T03:41:37.128Z,0.00
2019-04-26T03:42:37.053Z,0.00
2019-04-26T03:43:36.826Z,0.00
2019-04-26T03:44:37.053Z,0.00
2019-04-26T03:45:37.092Z,0.00
2019-04-26T03:46:37.597Z,0.00
2019-04-26T03:47:39.766Z,0.00
2019-04-26T03:48:37.301Z,0.00
2019-04-26T03:49:37.397Z,0.00
2019-04-26T03:50:37.327Z,0.00
2019-04-26T03:51:37.526Z,0.00
2019-04-26T03:52:37.430Z,0.00
2019-04-26T03:53:37.678Z,0.00
2019-04-26T03:54:39.373Z,0.00
2019-04-26T03:55:36.393Z,4.00
2019-04-26T03:56:36.644Z,4.00
2019-04-26T03:57:36.958Z,4.00
2019-04-26T03:58:37.760Z,0.00
2019-04-26T03:59:36.898Z,0.00
2019-04-26T04:00:37.204Z,4.00
2019-04-26T04:01:37.390Z,4.00
2019-04-26T04:02:37.572Z,4.00
2019-04-26T04:03:37.844Z,4.00
2019-04-26T04:04:37.273Z,4.00
2019-04-26T04:05:37.386Z,4.00
2019-04-26T04:06:52.729Z,4.00
2019-04-26T04:07:45.173Z,4.00
2019-04-26T04:08:38.479Z,8.00
2019-04-26T04:09:35.844Z,8.00
2019-04-26T04:10:37.403Z,8.00
2019-04-26T04:11:36.431Z,12.00
2019-04-26T04:12:36.205Z,8.00
2019-04-26T04:13:36.769Z,8.00
2019-04-26T04:14:37.681Z,12.00
2019-04-26T04:15:37.935Z,12.00
2019-04-26T04:16:37.029Z,16.00
2019-04-26T04:17:37.352Z,16.00
2019-04-26T04:18:36.827Z,16.00
2019-04-26T04:19:37.271Z,16.00
2019-04-26T04:20:35.484Z,16.00
2019-04-26T04:21:35.447Z,20.00
2019-04-26T04:22:35.439Z,20.00
2019-04-26T04:23:35.424Z,20.00
2019-04-26T04:24:35.428Z,20.00
2019-04-26T04:25:35.447Z,20.00
2019-04-26T04:26:35.422Z,24.00
2019-04-26T04:27:35.377Z,24.00
2019-04-26T04:28:35.370Z,24.00
2019-04-26T04:29:42.211Z,20.00
2019-04-26T04:30:36.382Z,20.00
2019-04-26T04:31:35.351Z,20.00
2019-04-26T04:32:35.322Z,20.00
2019-04-26T04:33:35.310Z,20.00
2019-04-26T04:34:35.297Z,20.00
2019-04-26T04:35:35.313Z,24.00
2019-04-26T04:36:35.276Z,20.00
2019-04-26T04:37:35.305Z,28.00
2019-04-26T04:38:35.259Z,28.00
2019-04-26T04:39:35.275Z,36.00
2019-04-26T04:40:35.264Z,40.00
2019-04-26T04:41:35.222Z,40.00
2019-04-26T04:42:35.246Z,44.00
2019-04-26T04:43:35.258Z,52.00
2019-04-26T04:44:35.201Z,56.00
2019-04-26T04:45:35.225Z,64.00
2019-04-26T04:46:35.195Z,72.00
2019-04-26T04:47:35.190Z,88.00
2019-04-26T04:48:35.246Z,96.00
2019-04-26T04:49:35.209Z,104.00
2019-04-26T04:50:35.135Z,112.00
2019-04-26T04:51:35.115Z,128.00
2019-04-26T04:52:35.103Z,148.00
2019-04-26T04:53:35.087Z,172.00
2019-04-26T04:54:35.083Z,196.00
2019-04-26T04:55:35.135Z,220.00
2019-04-26T04:56:35.085Z,244.00
2019-04-26T04:57:35.101Z,276.00
2019-04-26T04:58:35.039Z,308.00
2019-04-26T04:59:35.047Z,344.00
2019-04-26T05:00:36.126Z,380.00
2019-04-26T05:01:35.026Z,404.00
2019-04-26T05:02:35.025Z,392.00
2019-04-26T05:03:34.995Z,360.00
2019-04-26T05:04:35.013Z,340.00
2019-04-26T05:05:34.967Z,336.00
2019-04-26T05:06:34.996Z,324.00
2019-04-26T05:07:34.936Z,308.00
2019-04-26T05:08:34.925Z,296.00
2019-04-26T05:09:34.935Z,284.00
2019-04-26T05:10:34.902Z,264.00
2019-04-26T05:11:34.901Z,260.00
2019-04-26T05:12:34.937Z,260.00
2019-04-26T05:13:34.892Z,260.00
2019-04-26T05:14:34.887Z,252.00
2019-04-26T05:15:34.862Z,240.00
2019-04-26T05:16:34.865Z,220.00
2019-04-26T05:17:34.837Z,212.00
2019-04-26T05:18:34.834Z,216.00
2019-04-26T05:19:34.801Z,224.00
2019-04-26T05:20:34.803Z,240.00
2019-04-26T05:21:34.848Z,260.00
2019-04-26T05:22:34.785Z,296.00
2019-04-26T05:23:34.768Z,340.00
2019-04-26T05:24:34.776Z,372.00
2019-04-26T05:25:34.748Z,368.00
2019-04-26T05:26:34.752Z,348.00
2019-04-26T05:27:34.769Z,320.00
2019-04-26T05:28:34.734Z,324.00
2019-04-26T05:29:34.723Z,340.00
2019-04-26T05:30:34.740Z,360.00
2019-04-26T05:31:34.756Z,360.00
2019-04-26T05:32:34.721Z,352.00
2019-04-26T05:33:34.674Z,344.00
2019-04-26T05:34:34.654Z,348.00
2019-04-26T05:35:34.643Z,352.00
2019-04-26T05:36:34.699Z,344.00
2019-04-26T05:37:37.053Z,336.00
2019-04-26T05:38:34.620Z,328.00
2019-04-26T05:39:34.603Z,332.00
2019-04-26T05:40:34.598Z,352.00
2019-04-26T05:41:34.670Z,372.00
2019-04-26T05:42:34.592Z,384.00
2019-04-26T05:43:34.548Z,388.00
2019-04-26T05:44:34.581Z,388.00
2019-04-26T05:45:34.543Z,388.00
2019-04-26T05:46:34.534Z,376.00
2019-04-26T05:47:34.521Z,368.00
2019-04-26T05:48:34.542Z,348.00
2019-04-26T05:49:34.530Z,324.00
2019-04-26T05:50:34.503Z,308.00
2019-04-26T05:51:34.530Z,300.00
2019-04-26T05:52:34.447Z,300.00
2019-04-26T05:53:34.470Z,300.00
2019-04-26T05:54:34.470Z,296.00
2019-04-26T05:55:34.851Z,280.00
2019-04-26T05:56:34.495Z,272.00
2019-04-26T05:57:36.320Z,252.00
2019-04-26T05:58:34.425Z,272.00
2019-04-26T05:59:34.472Z,272.00
2019-04-26T06:00:34.460Z,280.00
2019-04-26T06:01:34.388Z,304.00
2019-04-26T06:02:34.389Z,336.00
2019-04-26T06:03:34.344Z,360.00
2019-04-26T06:04:34.378Z,368.00
2019-04-26T06:05:34.307Z,372.00
2019-04-26T06:06:34.312Z,388.00
2019-04-26T06:07:34.276Z,396.00
2019-04-26T06:08:34.274Z,396.00
2019-04-26T06:09:34.260Z,404.00
2019-04-26T06:10:34.286Z,408.00
2019-04-26T06:11:34.232Z,392.00
2019-04-26T06:12:34.246Z,388.00
2019-04-26T06:13:34.240Z,380.00
2019-04-26T06:14:34.221Z,376.00
2019-04-26T06:15:34.229Z,372.00
2019-04-26T06:16:34.202Z,360.00
2019-04-26T06:17:34.190Z,344.00
2019-04-26T06:18:34.200Z,340.00
2019-04-26T06:19:34.167Z,332.00
2019-04-26T06:20:34.134Z,332.00
2019-04-26T06:21:34.146Z,340.00
2019-04-26T06:22:34.194Z,360.00
2019-04-26T06:23:34.119Z,376.00
2019-04-26T06:24:34.090Z,388.00
2019-04-26T06:25:34.149Z,408.00
2019-04-26T06:26:34.091Z,416.00
2019-04-26T06:27:34.093Z,420.00
2019-04-26T06:28:34.051Z,408.00
2019-04-26T06:29:34.035Z,392.00
2019-04-26T06:30:45.040Z,364.00
2019-04-26T06:31:35.042Z,336.00
2019-04-26T06:32:34.191Z,316.00
2019-04-26T06:33:34.013Z,300.00
2019-04-26T06:34:34.017Z,288.00
2019-04-26T06:35:33.973Z,292.00
2019-04-26T06:36:34.306Z,292.00
2019-04-26T06:37:33.968Z,304.00
2019-04-26T06:38:43.277Z,320.00
2019-04-26T06:39:34.922Z,340.00
2019-04-26T06:40:41.801Z,352.00
2019-04-26T06:41:34.943Z,352.00
2019-04-26T06:42:33.940Z,340.00
2019-04-26T06:43:33.931Z,320.00
2019-04-26T06:44:33.935Z,296.00
2019-04-26T06:45:33.890Z,280.00
2019-04-26T06:46:33.849Z,260.00
2019-04-26T06:47:33.874Z,252.00
2019-04-26T06:48:33.913Z,244.00
2019-04-26T06:49:33.809Z,240.00
2019-04-26T06:50:33.822Z,240.00
2019-04-26T06:51:33.815Z,240.00
2019-04-26T06:52:33.802Z,244.00
2019-04-26T06:53:33.833Z,248.00
2019-04-26T06:54:33.775Z,256.00
2019-04-26T06:55:33.764Z,276.00
2019-04-26T06:56:33.757Z,300.00
2019-04-26T06:57:33.779Z,340.00
2019-04-26T06:58:33.799Z,384.00
2019-04-26T06:59:36.530Z,420.00
2019-04-26T07:00:33.700Z,452.00
2019-04-26T07:01:33.743Z,480.00
2019-04-26T07:02:33.697Z,512.00
2019-04-26T07:03:33.666Z,544.00
2019-04-26T07:04:33.669Z,604.00
2019-04-26T07:05:33.708Z,684.00
2019-04-26T07:06:35.258Z,768.00
2019-04-26T07:07:33.619Z,816.00
2019-04-26T07:08:33.624Z,812.00
2019-04-26T07:09:33.652Z,804.00
2019-04-26T07:10:33.610Z,828.00
2019-04-26T07:11:33.602Z,880.00
2019-04-26T07:12:33.575Z,944.00
2019-04-26T07:13:33.576Z,1000.00
2019-04-26T07:14:33.559Z,1012.00
2019-04-26T07:15:33.585Z,1000.00
2019-04-26T07:16:33.519Z,968.00
2019-04-26T07:17:33.537Z,940.00
2019-04-26T07:18:33.522Z,944.00
2019-04-26T07:19:33.487Z,932.00
2019-04-26T07:20:33.489Z,896.00
2019-04-26T07:21:33.480Z,836.00
2019-04-26T07:22:35.433Z,764.00
2019-04-26T07:23:33.522Z,728.00
2019-04-26T07:24:33.428Z,684.00
2019-04-26T07:25:33.451Z,656.00
2019-04-26T07:26:33.416Z,664.00
2019-04-26T07:27:33.416Z,624.00
2019-04-26T07:28:33.528Z,692.00
2019-04-26T07:29:33.397Z,756.00
2019-04-26T07:30:33.366Z,836.00
2019-04-26T07:31:33.368Z,912.00
2019-04-26T07:32:33.342Z,968.00
2019-04-26T07:33:33.368Z,980.00
2019-04-26T07:34:33.370Z,972.00
2019-04-26T07:35:33.339Z,932.00
2019-04-26T07:36:33.293Z,852.00
2019-04-26T07:37:33.283Z,776.00
2019-04-26T07:38:33.378Z,732.00
2019-04-26T07:39:33.291Z,724.00
2019-04-26T07:40:33.397Z,720.00
2019-04-26T07:41:33.312Z,704.00
2019-04-26T07:42:33.275Z,692.00
2019-04-26T07:43:33.322Z,672.00
2019-04-26T07:44:33.260Z,656.00
2019-04-26T07:45:33.217Z,656.00
2019-04-26T07:46:33.207Z,688.00
2019-04-26T07:47:33.189Z,744.00
2019-04-26T07:48:33.210Z,808.00
2019-04-26T07:49:33.154Z,888.00
2019-04-26T07:50:33.147Z,976.00
2019-04-26T07:51:33.130Z,1088.00
2019-04-26T07:52:33.151Z,1184.00
2019-04-26T07:53:33.200Z,1204.00
2019-04-26T07:54:33.138Z,1164.00
2019-04-26T07:55:33.137Z,1228.00
2019-04-26T07:56:33.100Z,1256.00
2019-04-26T07:57:33.089Z,1232.00
2019-04-26T07:58:33.127Z,1132.00
2019-04-26T07:59:33.086Z,1112.00
2019-04-26T08:00:44.413Z,1132.00
2019-04-26T08:01:34.066Z,1196.00
2019-04-26T08:02:33.047Z,1192.00
2019-04-26T08:03:33.020Z,1068.00
2019-04-26T08:04:33.008Z,1104.00
2019-04-26T08:05:34.054Z,1136.00
2019-04-26T08:06:32.977Z,1152.00
2019-04-26T08:07:32.969Z,892.00
2019-04-26T08:08:33.023Z,800.00
2019-04-26T08:09:32.963Z,868.00
2019-04-26T08:10:32.942Z,1012.00
2019-04-26T08:11:32.932Z,1184.00
2019-04-26T08:12:32.920Z,1176.00
2019-04-26T08:13:32.962Z,1268.00
2019-04-26T08:14:32.891Z,1268.00
2019-04-26T08:15:32.862Z,1180.00
2019-04-26T08:16:32.874Z,1472.00
2019-04-26T08:17:32.855Z,1468.00
2019-04-26T08:18:32.838Z,1228.00
2019-04-26T08:19:32.876Z,1312.00
2019-04-26T08:20:33.148Z,1244.00
2019-04-26T08:21:32.819Z,964.00
2019-04-26T08:22:33.876Z,784.00
2019-04-26T08:23:42.198Z,736.00
2019-04-26T08:24:33.820Z,804.00
2019-04-26T08:25:32.760Z,932.00
2019-04-26T08:26:32.806Z,912.00
2019-04-26T08:27:32.752Z,948.00
2019-04-26T08:28:32.760Z,996.00
2019-04-26T08:29:33.339Z,1068.00
2019-04-26T08:30:32.723Z,1252.00
2019-04-26T08:31:32.706Z,1340.00
2019-04-26T08:32:33.456Z,1460.00
2019-04-26T08:33:32.684Z,1520.00
2019-04-26T08:34:33.826Z,1552.00
2019-04-26T08:35:32.658Z,1480.00
2019-04-26T08:36:32.659Z,1396.00
2019-04-26T08:37:36.535Z,1352.00
2019-04-26T08:38:32.636Z,1260.00
2019-04-26T08:39:44.897Z,1164.00
2019-04-26T08:40:33.610Z,1076.00
2019-04-26T08:41:35.290Z,1000.00
2019-04-26T08:42:33.580Z,936.00
2019-04-26T08:43:32.602Z,920.00
2019-04-26T08:44:34.457Z,924.00
2019-04-26T08:45:32.580Z,952.00
2019-04-26T08:46:36.242Z,1008.00
2019-04-26T08:47:32.571Z,972.00
2019-04-26T08:48:32.530Z,1056.00
2019-04-26T08:49:35.157Z,992.00
2019-04-26T08:50:33.496Z,904.00
2019-04-26T08:51:32.523Z,816.00
2019-04-26T08:52:32.486Z,940.00
2019-04-26T08:53:32.518Z,900.00
2019-04-26T08:54:32.704Z,976.00
2019-04-26T08:55:32.469Z,1092.00
2019-04-26T08:56:32.429Z,1192.00
2019-04-26T08:57:32.441Z,1224.00
2019-04-26T08:58:32.499Z,1364.00
2019-04-26T08:59:32.401Z,1420.00
2019-04-26T09:00:32.435Z,1368.00
2019-04-26T09:01:32.393Z,1392.00
2019-04-26T09:02:32.383Z,1360.00
2019-04-26T09:03:32.529Z,1240.00
2019-04-26T09:04:32.353Z,1264.00
2019-04-26T09:05:32.356Z,1284.00
2019-04-26T09:06:32.297Z,1308.00
2019-04-26T09:07:32.307Z,1352.00
2019-04-26T09:08:32.352Z,1412.00
2019-04-26T09:09:32.455Z,1476.00
2019-04-26T09:10:32.310Z,1548.00
2019-04-26T09:11:33.942Z,1660.00
2019-04-26T09:12:32.288Z,1812.00
2019-04-26T09:13:32.274Z,1968.00
2019-04-26T09:14:32.268Z,2212.00
2019-04-26T09:15:32.242Z,2440.00
2019-04-26T09:16:32.212Z,2580.00
2019-04-26T09:17:33.762Z,2648.00
2019-04-26T09:18:42.508Z,2652.00
2019-04-26T09:19:33.193Z,2552.00
2019-04-26T09:20:32.186Z,2524.00
2019-04-26T09:21:32.180Z,2432.00
2019-04-26T09:22:32.191Z,2508.00
2019-04-26T09:23:39.849Z,2492.00
2019-04-26T09:24:33.147Z,2436.00
2019-04-26T09:25:34.421Z,2556.00
2019-04-26T09:26:33.130Z,2568.00
2019-04-26T09:27:32.086Z,2360.00
2019-04-26T09:28:32.068Z,2276.00
2019-04-26T09:29:32.205Z,2360.00
2019-04-26T09:30:34.051Z,2320.00
2019-04-26T09:31:32.035Z,2392.00
2019-04-26T09:32:32.011Z,2360.00
2019-04-26T09:33:35.906Z,2236.00
2019-04-26T09:34:33.015Z,1704.00
2019-04-26T09:35:31.994Z,2188.00
2019-04-26T09:36:31.968Z,2272.00
2019-04-26T09:37:31.961Z,2268.00
2019-04-26T09:38:31.958Z,2376.00
2019-04-26T09:39:31.997Z,2520.00
2019-04-26T09:40:31.927Z,2408.00
2019-04-26T09:41:32.192Z,2584.00
2019-04-26T09:42:31.916Z,2684.00
2019-04-26T09:43:31.910Z,2744.00
2019-04-26T09:44:31.922Z,2592.00
2019-04-26T09:45:31.901Z,2544.00
2019-04-26T09:46:31.862Z,2616.00
2019-04-26T09:47:31.899Z,2592.00
2019-04-26T09:48:31.862Z,2520.00
2019-04-26T09:49:31.900Z,2444.00
2019-04-26T09:50:31.849Z,2376.00
2019-04-26T09:51:34.838Z,2372.00
2019-04-26T09:52:32.845Z,2336.00
2019-04-26T09:53:31.805Z,2300.00
2019-04-26T09:54:31.806Z,2088.00
2019-04-26T09:55:35.405Z,2024.00
2019-04-26T09:56:31.775Z,1988.00
2019-04-26T09:57:31.800Z,2000.00
2019-04-26T09:58:32.249Z,1876.00
2019-04-26T09:59:31.747Z,1784.00
2019-04-26T10:00:31.739Z,1984.00
2019-04-26T10:01:31.712Z,2200.00
2019-04-26T10:02:33.888Z,2300.00
2019-04-26T10:03:34.232Z,2304.00
2019-04-26T10:04:31.690Z,2264.00
2019-04-26T10:05:31.665Z,2200.00
2019-04-26T10:06:31.672Z,2104.00
2019-04-26T10:07:33.426Z,2092.00
2019-04-26T10:08:32.650Z,2228.00
2019-04-26T10:09:31.615Z,2352.00
2019-04-26T10:10:35.200Z,2268.00
2019-04-26T10:11:31.594Z,2308.00
2019-04-26T10:12:31.606Z,2340.00
2019-04-26T10:13:31.581Z,2300.00
2019-04-26T10:14:31.562Z,2212.00
2019-04-26T10:15:31.587Z,2136.00
2019-04-26T10:16:33.604Z,2220.00
2019-04-26T10:17:32.561Z,2448.00
2019-04-26T10:18:31.527Z,2552.00
2019-04-26T10:19:31.905Z,2748.00
2019-04-26T10:20:31.584Z,2920.00
2019-04-26T10:21:31.503Z,2872.00
2019-04-26T10:22:31.526Z,2824.00
2019-04-26T10:23:31.459Z,2880.00
2019-04-26T10:24:31.450Z,2840.00
2019-04-26T10:25:31.453Z,2904.00
2019-04-26T10:26:31.444Z,2892.00
2019-04-26T10:27:32.517Z,2544.00
2019-04-26T10:28:31.426Z,2120.00
2019-04-26T10:29:31.408Z,2108.00
2019-04-26T10:30:31.399Z,2108.00
2019-04-26T10:31:31.398Z,1920.00
2019-04-26T10:32:31.437Z,1888.00
2019-04-26T10:33:32.595Z,1880.00
2019-04-26T10:34:31.339Z,1768.00
2019-04-26T10:35:31.371Z,1676.00
2019-04-26T10:36:31.532Z,1656.00
2019-04-26T10:37:39.202Z,1768.00
2019-04-26T10:38:32.344Z,1932.00
2019-04-26T10:39:32.414Z,2044.00
2019-04-26T10:40:35.686Z,2220.00
2019-04-26T10:41:31.333Z,2308.00
2019-04-26T10:42:31.335Z,2380.00
2019-04-26T10:43:31.290Z,2400.00
2019-04-26T10:44:31.322Z,2336.00
2019-04-26T10:45:31.249Z,2412.00
2019-04-26T10:46:31.247Z,2440.00
2019-04-26T10:47:34.296Z,2504.00
2019-04-26T10:48:31.216Z,2640.00
2019-04-26T10:49:31.170Z,2700.00
2019-04-26T10:50:32.967Z,2724.00
2019-04-26T10:51:31.162Z,2776.00
2019-04-26T10:52:31.196Z,2756.00
2019-04-26T10:53:31.960Z,2780.00
2019-04-26T10:54:31.132Z,2660.00
2019-04-26T10:55:31.102Z,2376.00
2019-04-26T10:56:31.157Z,2156.00
2019-04-26T10:57:31.151Z,2112.00
2019-04-26T10:58:31.942Z,2164.00
2019-04-26T10:59:31.849Z,2032.00
2019-04-26T11:00:31.068Z,1916.00
2019-04-26T11:01:31.058Z,1856.00
2019-04-26T11:02:31.127Z,1884.00
2019-04-26T11:03:31.061Z,1912.00
2019-04-26T11:04:31.050Z,1916.00
2019-04-26T11:05:31.038Z,1988.00
2019-04-26T11:06:31.049Z,2028.00
2019-04-26T11:07:31.107Z,2104.00
2019-04-26T11:08:30.969Z,2148.00
2019-04-26T11:09:30.970Z,2136.00
2019-04-26T11:10:30.952Z,2068.00
2019-04-26T11:11:30.991Z,2036.00
2019-04-26T11:12:30.932Z,2052.00
2019-04-26T11:13:30.951Z,2064.00
2019-04-26T11:14:30.929Z,2068.00
2019-04-26T11:15:32.594Z,2036.00
2019-04-26T11:16:30.889Z,2028.00
2019-04-26T11:17:30.962Z,2076.00
2019-04-26T11:18:31.007Z,2104.00
2019-04-26T11:19:32.000Z,2036.00
2019-04-26T11:20:30.858Z,1868.00
2019-04-26T11:21:30.809Z,1560.00
2019-04-26T11:22:33.414Z,1388.00
2019-04-26T11:23:31.842Z,1464.00
2019-04-26T11:24:31.060Z,1604.00
2019-04-26T11:25:30.797Z,1728.00
2019-04-26T11:26:30.990Z,1848.00
2019-04-26T11:27:30.793Z,1924.00
2019-04-26T11:28:30.732Z,1792.00
2019-04-26T11:29:30.777Z,1784.00
2019-04-26T11:30:30.800Z,1976.00
2019-04-26T11:31:30.790Z,1956.00
2019-04-26T11:32:33.136Z,1896.00
2019-04-26T11:33:31.727Z,1948.00
2019-04-26T11:34:30.755Z,2012.00
2019-04-26T11:35:33.205Z,1944.00
2019-04-26T11:36:30.697Z,1864.00
2019-04-26T11:37:30.659Z,1908.00
2019-04-26T11:38:31.577Z,1932.00
2019-04-26T11:39:30.659Z,1940.00
2019-04-26T11:40:30.660Z,1948.00
2019-04-26T11:41:34.029Z,2008.00
2019-04-26T11:42:30.656Z,2064.00
2019-04-26T11:43:30.603Z,2088.00
2019-04-26T11:44:30.592Z,2100.00
2019-04-26T11:45:30.550Z,2072.00
2019-04-26T11:46:30.644Z,2064.00
2019-04-26T11:47:30.546Z,2088.00
2019-04-26T11:48:30.733Z,2160.00
2019-04-26T11:49:30.561Z,2284.00
2019-04-26T11:50:30.833Z,2428.00
2019-04-26T11:51:30.548Z,2608.00
2019-04-26T11:52:32.138Z,2780.00
2019-04-26T11:53:33.431Z,2724.00
2019-04-26T11:54:30.478Z,2792.00
2019-04-26T11:55:31.494Z,2696.00
2019-04-26T11:56:30.463Z,2640.00
2019-04-26T11:57:30.451Z,2600.00
2019-04-26T11:58:30.432Z,2584.00
2019-04-26T11:59:31.670Z,2712.00
2019-04-26T12:00:30.413Z,2864.00
2019-04-26T12:01:30.412Z,2884.00
2019-04-26T12:02:30.384Z,2872.00
2019-04-26T12:03:30.451Z,3016.00
2019-04-26T12:04:30.428Z,3272.00
2019-04-26T12:05:30.365Z,3412.00
2019-04-26T12:06:30.324Z,3500.00
2019-04-26T12:07:30.349Z,3400.00
2019-04-26T12:08:30.365Z,3376.00
2019-04-26T12:09:30.331Z,3308.00
2019-04-26T12:10:30.318Z,2892.00
2019-04-26T12:11:35.045Z,2912.00
2019-04-26T12:12:30.285Z,2884.00
2019-04-26T12:13:30.322Z,2808.00
2019-04-26T12:14:33.488Z,2716.00
2019-04-26T12:15:30.790Z,2800.00
2019-04-26T12:16:30.243Z,2888.00
2019-04-26T12:17:31.217Z,2836.00
2019-04-26T12:18:30.398Z,2580.00
2019-04-26T12:19:30.205Z,2480.00
2019-04-26T12:20:30.167Z,2492.00
2019-04-26T12:21:30.501Z,2612.00
2019-04-26T12:22:30.180Z,2780.00
2019-04-26T12:23:30.177Z,2764.00
2019-04-26T12:24:34.299Z,2788.00
2019-04-26T12:25:31.158Z,2920.00
2019-04-26T12:26:42.136Z,3032.00
2019-04-26T12:27:31.914Z,3144.00
2019-04-26T12:28:30.123Z,3220.00
2019-04-26T12:29:30.135Z,3212.00
2019-04-26T12:30:30.062Z,3152.00
2019-04-26T12:31:30.054Z,3120.00
2019-04-26T12:32:30.089Z,3140.00
2019-04-26T12:33:30.088Z,3060.00
2019-04-26T12:34:30.029Z,2956.00
2019-04-26T12:35:30.247Z,2864.00
2019-04-26T12:36:29.996Z,2776.00
2019-04-26T12:37:29.990Z,2712.00
2019-04-26T12:38:30.131Z,2624.00